sensor_id;sensor_type;location;lat;lon;timestamp;temperature;humidity
61207;DHT22;47070;49.212;8.084;2022-07-29T00:01:19;22.50;82.20
61207;DHT22;47070;49.212;8.084;2022-07-29T00:05:20;22.40;82.00
61207;DHT22;47070;49.212;8.084;2022-07-29T00:09:20;22.30;82.50
61207;DHT22;47070;49.212;8.084;2022-07-29T00:13:20;22.20;84.00
61207;DHT22;47070;49.212;8.084;2022-07-29T00:17:23;22.20;83.40
61207;DHT22;47070;49.212;8.084;2022-07-29T00:21:23;22.00;84.20
61207;DHT22;47070;49.212;8.084;2022-07-29T00:25:24;21.90;86.50
61207;DHT22;47070;49.212;8.084;2022-07-29T00:29:24;21.60;87.60
61207;DHT22;47070;49.212;8.084;2022-07-29T00:33:25;21.60;88.00
61207;DHT22;47070;49.212;8.084;2022-07-29T00:37:25;21.30;90.00
61207;DHT22;47070;49.212;8.084;2022-07-29T00:41:26;21.30;89.80
61207;DHT22;47070;49.212;8.084;2022-07-29T00:45:26;21.40;89.00
61207;DHT22;47070;49.212;8.084;2022-07-29T00:49:27;21.30;90.20
61207;DHT22;47070;49.212;8.084;2022-07-29T00:53:28;21.20;89.20
61207;DHT22;47070;49.212;8.084;2022-07-29T00:57:29;21.20;90.30
61207;DHT22;47070;49.212;8.084;2022-07-29T01:01:30;21.40;88.10
61207;DHT22;47070;49.212;8.084;2022-07-29T01:05:31;21.40;88.30
61207;DHT22;47070;49.212;8.084;2022-07-29T01:09:33;21.50;88.30
61207;DHT22;47070;49.212;8.084;2022-07-29T01:13:34;21.20;90.30
61207;DHT22;47070;49.212;8.084;2022-07-29T01:17:44;21.10;90.40
61207;DHT22;47070;49.212;8.084;2022-07-29T01:21:57;20.80;91.40
61207;DHT22;47070;49.212;8.084;2022-07-29T01:26:31;20.60;91.70
61207;DHT22;47070;49.212;8.084;2022-07-29T01:30:35;20.10;92.40
61207;DHT22;47070;49.212;8.084;2022-07-29T01:34:50;20.20;92.80
61207;DHT22;47070;49.212;8.084;2022-07-29T01:39:10;20.60;91.80
61207;DHT22;47070;49.212;8.084;2022-07-29T01:43:17;20.70;92.00
61207;DHT22;47070;49.212;8.084;2022-07-29T01:47:21;20.60;92.10
61207;DHT22;47070;49.212;8.084;2022-07-29T01:51:31;20.50;91.90
61207;DHT22;47070;49.212;8.084;2022-07-29T01:55:38;20.30;92.20
61207;DHT22;47070;49.212;8.084;2022-07-29T01:59:41;20.00;92.90
61207;DHT22;47070;49.212;8.084;2022-07-29T02:03:45;20.10;92.70
61207;DHT22;47070;49.212;8.084;2022-07-29T02:07:47;19.90;93.30
61207;DHT22;47070;49.212;8.084;2022-07-29T02:11:52;19.80;93.10
61207;DHT22;47070;49.212;8.084;2022-07-29T02:15:54;19.70;93.40
61207;DHT22;47070;49.212;8.084;2022-07-29T02:19:59;19.70;93.60
61207;DHT22;47070;49.212;8.084;2022-07-29T02:24:01;19.70;93.80
61207;DHT22;47070;49.212;8.084;2022-07-29T02:28:02;19.30;94.50
61207;DHT22;47070;49.212;8.084;2022-07-29T02:32:04;19.30;94.80
61207;DHT22;47070;49.212;8.084;2022-07-29T02:36:07;19.40;94.60
61207;DHT22;47070;49.212;8.084;2022-07-29T02:40:10;19.30;94.80
61207;DHT22;47070;49.212;8.084;2022-07-29T02:44:17;19.30;94.90
61207;DHT22;47070;49.212;8.084;2022-07-29T02:48:22;19.20;94.90
61207;DHT22;47070;49.212;8.084;2022-07-29T02:52:34;19.30;94.80
61207;DHT22;47070;49.212;8.084;2022-07-29T02:56:39;19.30;94.80
61207;DHT22;47070;49.212;8.084;2022-07-29T03:00:40;19.10;94.90
61207;DHT22;47070;49.212;8.084;2022-07-29T03:04:42;19.00;95.20
61207;DHT22;47070;49.212;8.084;2022-07-29T03:08:44;18.60;95.80
61207;DHT22;47070;49.212;8.084;2022-07-29T03:12:45;18.60;95.80
61207;DHT22;47070;49.212;8.084;2022-07-29T03:16:47;18.80;95.70
61207;DHT22;47070;49.212;8.084;2022-07-29T03:20:47;18.70;95.90
61207;DHT22;47070;49.212;8.084;2022-07-29T03:24:48;18.80;95.30
61207;DHT22;47070;49.212;8.084;2022-07-29T03:28:48;18.80;95.30
61207;DHT22;47070;49.212;8.084;2022-07-29T03:32:50;18.80;95.60
61207;DHT22;47070;49.212;8.084;2022-07-29T03:36:51;18.70;95.70
61207;DHT22;47070;49.212;8.084;2022-07-29T03:40:54;18.70;96.10
61207;DHT22;47070;49.212;8.084;2022-07-29T03:44:57;18.60;96.00
61207;DHT22;47070;49.212;8.084;2022-07-29T03:49:01;18.50;96.00
61207;DHT22;47070;49.212;8.084;2022-07-29T03:53:03;18.50;96.00
61207;DHT22;47070;49.212;8.084;2022-07-29T03:57:05;18.50;96.10
61207;DHT22;47070;49.212;8.084;2022-07-29T04:01:06;18.50;95.90
61207;DHT22;47070;49.212;8.084;2022-07-29T04:05:12;18.50;96.00
61207;DHT22;47070;49.212;8.084;2022-07-29T04:09:13;18.30;96.20
61207;DHT22;47070;49.212;8.084;2022-07-29T04:13:13;18.20;96.40
61207;DHT22;47070;49.212;8.084;2022-07-29T04:17:14;18.10;96.70
61207;DHT22;47070;49.212;8.084;2022-07-29T04:21:14;18.00;96.80
61207;DHT22;47070;49.212;8.084;2022-07-29T04:25:15;18.10;96.90
61207;DHT22;47070;49.212;8.084;2022-07-29T04:29:15;18.20;96.90
61207;DHT22;47070;49.212;8.084;2022-07-29T04:33:16;18.00;97.20
61207;DHT22;47070;49.212;8.084;2022-07-29T04:37:16;18.10;97.20
61207;DHT22;47070;49.212;8.084;2022-07-29T04:41:17;18.10;97.10
61207;DHT22;47070;49.212;8.084;2022-07-29T04:45:18;18.20;97.20
61207;DHT22;47070;49.212;8.084;2022-07-29T04:49:18;18.30;97.50
61207;DHT22;47070;49.212;8.084;2022-07-29T04:53:19;18.40;97.40
61207;DHT22;47070;49.212;8.084;2022-07-29T04:57:19;18.50;97.40
61207;DHT22;47070;49.212;8.084;2022-07-29T05:01:20;18.60;97.40
61207;DHT22;47070;49.212;8.084;2022-07-29T05:05:20;18.80;97.30
61207;DHT22;47070;49.212;8.084;2022-07-29T05:09:21;18.90;96.80
61207;DHT22;47070;49.212;8.084;2022-07-29T05:13:21;19.40;95.80
61207;DHT22;47070;49.212;8.084;2022-07-29T05:17:22;19.40;95.90
61207;DHT22;47070;49.212;8.084;2022-07-29T05:21:22;19.50;95.60
61207;DHT22;47070;49.212;8.084;2022-07-29T05:25:24;19.50;96.40
61207;DHT22;47070;49.212;8.084;2022-07-29T05:29:24;19.50;97.10
61207;DHT22;47070;49.212;8.084;2022-07-29T05:33:25;19.70;97.10
61207;DHT22;47070;49.212;8.084;2022-07-29T05:37:26;19.70;97.30
61207;DHT22;47070;49.212;8.084;2022-07-29T05:41:26;19.90;96.70
61207;DHT22;47070;49.212;8.084;2022-07-29T05:45:27;20.10;95.90
61207;DHT22;47070;49.212;8.084;2022-07-29T05:49:27;20.20;96.10
61207;DHT22;47070;49.212;8.084;2022-07-29T05:53:28;20.50;95.00
61207;DHT22;47070;49.212;8.084;2022-07-29T05:57:28;20.70;94.60
61207;DHT22;47070;49.212;8.084;2022-07-29T06:01:29;20.80;93.80
61207;DHT22;47070;49.212;8.084;2022-07-29T06:05:29;21.10;93.50
61207;DHT22;47070;49.212;8.084;2022-07-29T06:09:31;21.20;93.40
61207;DHT22;47070;49.212;8.084;2022-07-29T06:13:31;21.30;93.40
61207;DHT22;47070;49.212;8.084;2022-07-29T06:17:32;21.60;92.90
61207;DHT22;47070;49.212;8.084;2022-07-29T06:21:32;21.80;92.70
61207;DHT22;47070;49.212;8.084;2022-07-29T06:25:33;21.90;92.50
61207;DHT22;47070;49.212;8.084;2022-07-29T06:29:35;21.90;92.40
61207;DHT22;47070;49.212;8.084;2022-07-29T06:33:36;22.10;93.30
61207;DHT22;47070;49.212;8.084;2022-07-29T06:37:36;22.20;92.70
61207;DHT22;47070;49.212;8.084;2022-07-29T06:41:37;22.30;92.90
61207;DHT22;47070;49.212;8.084;2022-07-29T06:45:37;22.20;92.30
61207;DHT22;47070;49.212;8.084;2022-07-29T06:49:41;22.30;92.40
61207;DHT22;47070;49.212;8.084;2022-07-29T06:53:41;22.40;91.90
61207;DHT22;47070;49.212;8.084;2022-07-29T06:57:42;22.40;92.40
61207;DHT22;47070;49.212;8.084;2022-07-29T07:01:43;22.50;92.50
61207;DHT22;47070;49.212;8.084;2022-07-29T07:05:45;22.60;91.70
61207;DHT22;47070;49.212;8.084;2022-07-29T07:09:45;22.60;92.50
61207;DHT22;47070;49.212;8.084;2022-07-29T07:13:46;22.80;92.70
61207;DHT22;47070;49.212;8.084;2022-07-29T07:17:47;22.90;92.80
61207;DHT22;47070;49.212;8.084;2022-07-29T07:21:49;22.80;92.50
61207;DHT22;47070;49.212;8.084;2022-07-29T07:25:49;23.00;93.00
61207;DHT22;47070;49.212;8.084;2022-07-29T07:29:50;23.20;92.50
61207;DHT22;47070;49.212;8.084;2022-07-29T07:33:50;23.20;91.90
61207;DHT22;47070;49.212;8.084;2022-07-29T07:37:52;23.40;92.70
61207;DHT22;47070;49.212;8.084;2022-07-29T07:41:52;23.70;93.10
61207;DHT22;47070;49.212;8.084;2022-07-29T07:45:53;23.60;92.20
61207;DHT22;47070;49.212;8.084;2022-07-29T07:49:53;23.70;92.50
61207;DHT22;47070;49.212;8.084;2022-07-29T07:53:54;23.90;92.70
61207;DHT22;47070;49.212;8.084;2022-07-29T07:57:55;24.00;92.10
61207;DHT22;47070;49.212;8.084;2022-07-29T08:01:55;24.10;91.40
61207;DHT22;47070;49.212;8.084;2022-07-29T08:05:56;24.20;92.00
61207;DHT22;47070;49.212;8.084;2022-07-29T08:09:57;24.20;91.40
61207;DHT22;47070;49.212;8.084;2022-07-29T08:13:58;24.20;90.70
61207;DHT22;47070;49.212;8.084;2022-07-29T08:17:58;24.40;90.50
61207;DHT22;47070;49.212;8.084;2022-07-29T08:21:59;24.50;91.40
61207;DHT22;47070;49.212;8.084;2022-07-29T08:26:00;24.60;90.90
61207;DHT22;47070;49.212;8.084;2022-07-29T08:30:00;24.70;91.20
61207;DHT22;47070;49.212;8.084;2022-07-29T08:34:01;24.50;90.90
61207;DHT22;47070;49.212;8.084;2022-07-29T08:38:02;24.60;90.50
61207;DHT22;47070;49.212;8.084;2022-07-29T08:42:03;24.70;91.20
61207;DHT22;47070;49.212;8.084;2022-07-29T08:46:05;24.70;90.20
61207;DHT22;47070;49.212;8.084;2022-07-29T08:50:09;24.80;90.60
61207;DHT22;47070;49.212;8.084;2022-07-29T08:54:11;25.00;90.00
61207;DHT22;47070;49.212;8.084;2022-07-29T08:58:12;25.00;90.00
61207;DHT22;47070;49.212;8.084;2022-07-29T09:02:19;24.90;89.60
61207;DHT22;47070;49.212;8.084;2022-07-29T09:06:21;24.90;91.00
61207;DHT22;47070;49.212;8.084;2022-07-29T09:10:22;24.80;88.00
61207;DHT22;47070;49.212;8.084;2022-07-29T09:14:23;24.80;89.10
61207;DHT22;47070;49.212;8.084;2022-07-29T09:18:39;24.80;90.20
61207;DHT22;47070;49.212;8.084;2022-07-29T09:22:40;25.00;90.10
61207;DHT22;47070;49.212;8.084;2022-07-29T09:26:43;24.90;88.00
61207;DHT22;47070;49.212;8.084;2022-07-29T09:35:19;25.20;88.10
61207;DHT22;47070;49.212;8.084;2022-07-29T09:43:31;25.10;83.80
61207;DHT22;47070;49.212;8.084;2022-07-29T09:47:49;25.30;89.70
61207;DHT22;47070;49.212;8.084;2022-07-29T09:52:08;25.50;87.60
61207;DHT22;47070;49.212;8.084;2022-07-29T09:56:08;25.70;86.20
61207;DHT22;47070;49.212;8.084;2022-07-29T10:04:13;25.60;85.50
61207;DHT22;47070;49.212;8.084;2022-07-29T10:08:13;25.50;88.40
61207;DHT22;47070;49.212;8.084;2022-07-29T10:12:14;25.60;84.60
61207;DHT22;47070;49.212;8.084;2022-07-29T10:16:16;25.80;85.00
61207;DHT22;47070;49.212;8.084;2022-07-29T10:20:17;26.20;87.70
61207;DHT22;47070;49.212;8.084;2022-07-29T10:24:17;26.50;84.80
61207;DHT22;47070;49.212;8.084;2022-07-29T10:28:18;26.50;82.90
61207;DHT22;47070;49.212;8.084;2022-07-29T10:32:31;26.70;84.90
61207;DHT22;47070;49.212;8.084;2022-07-29T10:37:03;27.00;84.40
61207;DHT22;47070;49.212;8.084;2022-07-29T10:45:29;27.40;81.80
61207;DHT22;47070;49.212;8.084;2022-07-29T10:49:30;27.50;82.00
61207;DHT22;47070;49.212;8.084;2022-07-29T10:53:51;27.50;79.60
61207;DHT22;47070;49.212;8.084;2022-07-29T10:58:18;27.70;81.00
61207;DHT22;47070;49.212;8.084;2022-07-29T11:15:21;27.50;81.70
61207;DHT22;47070;49.212;8.084;2022-07-29T11:19:22;27.40;81.60
61207;DHT22;47070;49.212;8.084;2022-07-29T11:23:29;27.00;80.40
61207;DHT22;47070;49.212;8.084;2022-07-29T11:27:31;26.90;81.00
61207;DHT22;47070;49.212;8.084;2022-07-29T11:31:44;26.70;83.90
61207;DHT22;47070;49.212;8.084;2022-07-29T11:36:09;26.60;84.80
61207;DHT22;47070;49.212;8.084;2022-07-29T11:40:12;26.50;83.70
61207;DHT22;47070;49.212;8.084;2022-07-29T11:44:13;26.60;84.10
61207;DHT22;47070;49.212;8.084;2022-07-29T11:48:16;26.70;81.30
61207;DHT22;47070;49.212;8.084;2022-07-29T11:52:19;27.10;79.50
61207;DHT22;47070;49.212;8.084;2022-07-29T11:56:21;27.40;78.80
61207;DHT22;47070;49.212;8.084;2022-07-29T12:00:27;27.80;79.70
61207;DHT22;47070;49.212;8.084;2022-07-29T12:04:28;28.00;78.30
61207;DHT22;47070;49.212;8.084;2022-07-29T12:08:29;27.80;76.20
61207;DHT22;47070;49.212;8.084;2022-07-29T12:12:30;27.90;79.30
61207;DHT22;47070;49.212;8.084;2022-07-29T12:16:37;28.10;77.30
61207;DHT22;47070;49.212;8.084;2022-07-29T12:20:37;27.80;78.80
61207;DHT22;47070;49.212;8.084;2022-07-29T12:24:44;27.70;78.80
61207;DHT22;47070;49.212;8.084;2022-07-29T12:28:45;27.50;82.00
61207;DHT22;47070;49.212;8.084;2022-07-29T12:32:47;27.50;78.00
61207;DHT22;47070;49.212;8.084;2022-07-29T12:36:48;27.40;79.10
61207;DHT22;47070;49.212;8.084;2022-07-29T12:40:49;27.10;77.60
61207;DHT22;47070;49.212;8.084;2022-07-29T12:44:51;27.10;83.00
61207;DHT22;47070;49.212;8.084;2022-07-29T12:48:53;27.20;77.50
61207;DHT22;47070;49.212;8.084;2022-07-29T12:53:12;27.40;79.20
61207;DHT22;47070;49.212;8.084;2022-07-29T12:57:12;27.40;82.60
61207;DHT22;47070;49.212;8.084;2022-07-29T13:01:15;27.30;80.20
61207;DHT22;47070;49.212;8.084;2022-07-29T13:05:17;27.00;83.40
61207;DHT22;47070;49.212;8.084;2022-07-29T13:09:20;27.30;77.70
61207;DHT22;47070;49.212;8.084;2022-07-29T13:13:22;27.20;79.00
61207;DHT22;47070;49.212;8.084;2022-07-29T13:17:23;26.70;83.90
61207;DHT22;47070;49.212;8.084;2022-07-29T13:21:23;26.70;84.00
61207;DHT22;47070;49.212;8.084;2022-07-29T13:25:31;26.70;83.00
61207;DHT22;47070;49.212;8.084;2022-07-29T13:29:32;26.80;77.90
61207;DHT22;47070;49.212;8.084;2022-07-29T13:33:33;27.10;82.00
61207;DHT22;47070;49.212;8.084;2022-07-29T13:37:35;27.40;80.90
61207;DHT22;47070;49.212;8.084;2022-07-29T13:41:38;28.10;81.20
61207;DHT22;47070;49.212;8.084;2022-07-29T13:45:38;28.10;80.90
61207;DHT22;47070;49.212;8.084;2022-07-29T13:49:39;27.60;81.40
61207;DHT22;47070;49.212;8.084;2022-07-29T13:53:40;27.40;79.40
61207;DHT22;47070;49.212;8.084;2022-07-29T13:57:40;27.20;81.00
61207;DHT22;47070;49.212;8.084;2022-07-29T14:01:41;27.20;79.70
61207;DHT22;47070;49.212;8.084;2022-07-29T14:05:42;27.30;82.00
61207;DHT22;47070;49.212;8.084;2022-07-29T14:09:43;29.30;78.70
61207;DHT22;47070;49.212;8.084;2022-07-29T14:13:43;28.80;74.80
61207;DHT22;47070;49.212;8.084;2022-07-29T14:17:44;28.60;73.30
61207;DHT22;47070;49.212;8.084;2022-07-29T14:21:44;28.10;77.80
61207;DHT22;47070;49.212;8.084;2022-07-29T14:25:45;28.10;76.00
61207;DHT22;47070;49.212;8.084;2022-07-29T14:29:46;28.70;71.30
61207;DHT22;47070;49.212;8.084;2022-07-29T14:33:46;29.30;74.30
61207;DHT22;47070;49.212;8.084;2022-07-29T14:37:47;29.00;73.40
61207;DHT22;47070;49.212;8.084;2022-07-29T14:41:48;30.20;73.90
61207;DHT22;47070;49.212;8.084;2022-07-29T14:45:49;30.50;66.40
61207;DHT22;47070;49.212;8.084;2022-07-29T14:49:49;29.30;66.40
61207;DHT22;47070;49.212;8.084;2022-07-29T14:53:50;28.90;70.30
61207;DHT22;47070;49.212;8.084;2022-07-29T14:57:50;28.60;68.40
61207;DHT22;47070;49.212;8.084;2022-07-29T15:01:51;28.30;68.40
61207;DHT22;47070;49.212;8.084;2022-07-29T15:05:52;28.60;68.90
61207;DHT22;47070;49.212;8.084;2022-07-29T15:09:52;28.40;75.10
61207;DHT22;47070;49.212;8.084;2022-07-29T15:13:53;28.20;75.30
61207;DHT22;47070;49.212;8.084;2022-07-29T15:17:54;28.20;70.40
61207;DHT22;47070;49.212;8.084;2022-07-29T15:21:54;28.00;72.60
61207;DHT22;47070;49.212;8.084;2022-07-29T15:25:55;28.00;74.90
61207;DHT22;47070;49.212;8.084;2022-07-29T15:29:55;28.00;73.60
61207;DHT22;47070;49.212;8.084;2022-07-29T15:33:56;27.90;72.00
61207;DHT22;47070;49.212;8.084;2022-07-29T15:37:56;27.90;73.60
61207;DHT22;47070;49.212;8.084;2022-07-29T15:41:57;27.60;72.40
61207;DHT22;47070;49.212;8.084;2022-07-29T15:46:00;27.60;72.90
61207;DHT22;47070;49.212;8.084;2022-07-29T15:50:19;27.60;70.90
61207;DHT22;47070;49.212;8.084;2022-07-29T15:54:20;27.70;68.30
61207;DHT22;47070;49.212;8.084;2022-07-29T15:58:20;27.60;65.30
61207;DHT22;47070;49.212;8.084;2022-07-29T16:02:21;27.50;70.40
61207;DHT22;47070;49.212;8.084;2022-07-29T16:06:22;27.40;69.80
61207;DHT22;47070;49.212;8.084;2022-07-29T16:10:22;27.50;65.00
61207;DHT22;47070;49.212;8.084;2022-07-29T16:14:23;27.40;73.80
61207;DHT22;47070;49.212;8.084;2022-07-29T16:18:24;27.30;74.30
61207;DHT22;47070;49.212;8.084;2022-07-29T16:22:24;27.30;66.30
61207;DHT22;47070;49.212;8.084;2022-07-29T16:26:25;27.30;69.70
61207;DHT22;47070;49.212;8.084;2022-07-29T16:30:26;27.10;74.70
61207;DHT22;47070;49.212;8.084;2022-07-29T16:34:26;27.20;70.30
61207;DHT22;47070;49.212;8.084;2022-07-29T16:38:27;27.10;75.80
61207;DHT22;47070;49.212;8.084;2022-07-29T16:42:27;27.10;68.50
61207;DHT22;47070;49.212;8.084;2022-07-29T16:46:28;27.00;77.20
61207;DHT22;47070;49.212;8.084;2022-07-29T16:50:29;27.00;67.60
61207;DHT22;47070;49.212;8.084;2022-07-29T16:54:30;27.00;71.30
61207;DHT22;47070;49.212;8.084;2022-07-29T16:58:31;27.00;75.30
61207;DHT22;47070;49.212;8.084;2022-07-29T17:02:32;27.00;72.00
61207;DHT22;47070;49.212;8.084;2022-07-29T17:06:39;26.90;74.10
61207;DHT22;47070;49.212;8.084;2022-07-29T17:10:39;27.00;73.70
61207;DHT22;47070;49.212;8.084;2022-07-29T17:14:40;27.00;70.50
61207;DHT22;47070;49.212;8.084;2022-07-29T17:18:40;26.80;75.10
61207;DHT22;47070;49.212;8.084;2022-07-29T17:22:41;26.80;67.40
61207;DHT22;47070;49.212;8.084;2022-07-29T17:26:42;26.80;71.10
61207;DHT22;47070;49.212;8.084;2022-07-29T17:30:43;26.80;72.20
61207;DHT22;47070;49.212;8.084;2022-07-29T17:34:44;26.80;73.60
61207;DHT22;47070;49.212;8.084;2022-07-29T17:38:44;26.70;70.80
61207;DHT22;47070;49.212;8.084;2022-07-29T17:42:45;26.70;76.30
61207;DHT22;47070;49.212;8.084;2022-07-29T17:46:46;26.60;75.10
61207;DHT22;47070;49.212;8.084;2022-07-29T17:50:47;26.60;71.80
61207;DHT22;47070;49.212;8.084;2022-07-29T17:54:48;26.60;75.90
61207;DHT22;47070;49.212;8.084;2022-07-29T17:58:48;26.60;79.90
61207;DHT22;47070;49.212;8.084;2022-07-29T18:02:49;26.50;74.40
61207;DHT22;47070;49.212;8.084;2022-07-29T18:06:50;26.50;72.80
61207;DHT22;47070;49.212;8.084;2022-07-29T18:10:51;26.40;79.10
61207;DHT22;47070;49.212;8.084;2022-07-29T18:14:52;26.40;73.50
61207;DHT22;47070;49.212;8.084;2022-07-29T18:18:52;26.40;76.40
61207;DHT22;47070;49.212;8.084;2022-07-29T18:22:53;26.30;73.30
61207;DHT22;47070;49.212;8.084;2022-07-29T18:26:54;26.20;78.20
61207;DHT22;47070;49.212;8.084;2022-07-29T18:30:54;26.20;79.70
61207;DHT22;47070;49.212;8.084;2022-07-29T18:34:55;26.20;74.90
61207;DHT22;47070;49.212;8.084;2022-07-29T18:38:55;26.00;72.30
61207;DHT22;47070;49.212;8.084;2022-07-29T18:42:56;25.80;78.00
61207;DHT22;47070;49.212;8.084;2022-07-29T18:46:56;25.80;73.80
61207;DHT22;47070;49.212;8.084;2022-07-29T18:50:57;25.40;75.20
61207;DHT22;47070;49.212;8.084;2022-07-29T18:54:59;25.00;78.30
61207;DHT22;47070;49.212;8.084;2022-07-29T18:59:00;24.80;81.20
61207;DHT22;47070;49.212;8.084;2022-07-29T19:03:01;24.60;81.00
61207;DHT22;47070;49.212;8.084;2022-07-29T19:07:02;24.50;80.90
61207;DHT22;47070;49.212;8.084;2022-07-29T19:11:03;24.40;82.00
61207;DHT22;47070;49.212;8.084;2022-07-29T19:15:03;24.30;83.30
61207;DHT22;47070;49.212;8.084;2022-07-29T19:19:04;24.20;83.10
61207;DHT22;47070;49.212;8.084;2022-07-29T19:23:06;24.10;84.90
61207;DHT22;47070;49.212;8.084;2022-07-29T19:27:08;23.90;85.40
61207;DHT22;47070;49.212;8.084;2022-07-29T19:31:08;23.80;85.20
61207;DHT22;47070;49.212;8.084;2022-07-29T19:35:09;23.70;82.70
61207;DHT22;47070;49.212;8.084;2022-07-29T19:39:27;23.90;78.00
61207;DHT22;47070;49.212;8.084;2022-07-29T19:43:27;24.20;80.90
61207;DHT22;47070;49.212;8.084;2022-07-29T19:47:29;24.30;82.20
61207;DHT22;47070;49.212;8.084;2022-07-29T19:51:30;24.40;81.80
61207;DHT22;47070;49.212;8.084;2022-07-29T19:55:30;24.40;82.70
61207;DHT22;47070;49.212;8.084;2022-07-29T19:59:31;24.50;83.20
61207;DHT22;47070;49.212;8.084;2022-07-29T20:03:31;24.50;83.80
61207;DHT22;47070;49.212;8.084;2022-07-29T20:07:32;24.50;82.90
61207;DHT22;47070;49.212;8.084;2022-07-29T20:11:33;24.50;83.50
61207;DHT22;47070;49.212;8.084;2022-07-29T20:15:36;24.60;84.50
61207;DHT22;47070;49.212;8.084;2022-07-29T20:19:36;24.60;84.00
61207;DHT22;47070;49.212;8.084;2022-07-29T20:23:37;24.60;83.70
61207;DHT22;47070;49.212;8.084;2022-07-29T20:27:37;24.70;84.90
61207;DHT22;47070;49.212;8.084;2022-07-29T20:31:42;24.60;83.30
61207;DHT22;47070;49.212;8.084;2022-07-29T20:35:42;24.60;84.70
61207;DHT22;47070;49.212;8.084;2022-07-29T20:39:44;24.60;84.20
61207;DHT22;47070;49.212;8.084;2022-07-29T20:43:47;24.70;83.60
61207;DHT22;47070;49.212;8.084;2022-07-29T20:47:50;24.60;82.70
61207;DHT22;47070;49.212;8.084;2022-07-29T20:51:51;24.60;84.60
61207;DHT22;47070;49.212;8.084;2022-07-29T20:55:51;24.60;85.50
61207;DHT22;47070;49.212;8.084;2022-07-29T20:59:51;24.50;86.20
61207;DHT22;47070;49.212;8.084;2022-07-29T21:03:52;24.40;83.60
61207;DHT22;47070;49.212;8.084;2022-07-29T21:07:52;24.40;84.40
61207;DHT22;47070;49.212;8.084;2022-07-29T21:11:53;24.20;84.50
61207;DHT22;47070;49.212;8.084;2022-07-29T21:15:53;24.10;84.70
61207;DHT22;47070;49.212;8.084;2022-07-29T21:19:58;24.10;84.70
61207;DHT22;47070;49.212;8.084;2022-07-29T21:23:59;24.00;86.50
61207;DHT22;47070;49.212;8.084;2022-07-29T21:28:01;24.10;87.00
61207;DHT22;47070;49.212;8.084;2022-07-29T21:32:20;24.10;87.20
61207;DHT22;47070;49.212;8.084;2022-07-29T21:36:21;24.10;87.00
61207;DHT22;47070;49.212;8.084;2022-07-29T21:40:21;24.10;86.40
61207;DHT22;47070;49.212;8.084;2022-07-29T21:44:22;24.10;88.10
61207;DHT22;47070;49.212;8.084;2022-07-29T21:48:24;24.00;87.30
61207;DHT22;47070;49.212;8.084;2022-07-29T21:52:25;24.00;89.10
61207;DHT22;47070;49.212;8.084;2022-07-29T21:56:28;24.10;90.00
61207;DHT22;47070;49.212;8.084;2022-07-29T22:00:29;24.00;85.80
61207;DHT22;47070;49.212;8.084;2022-07-29T22:04:33;24.10;88.20
61207;DHT22;47070;49.212;8.084;2022-07-29T22:08:34;24.00;85.30
61207;DHT22;47070;49.212;8.084;2022-07-29T22:12:35;24.00;85.80
61207;DHT22;47070;49.212;8.084;2022-07-29T22:16:36;23.80;86.30
61207;DHT22;47070;49.212;8.084;2022-07-29T22:20:36;23.70;86.70
61207;DHT22;47070;49.212;8.084;2022-07-29T22:24:37;23.70;87.90
61207;DHT22;47070;49.212;8.084;2022-07-29T22:28:37;23.70;88.30
61207;DHT22;47070;49.212;8.084;2022-07-29T22:32:38;23.50;88.50
61207;DHT22;47070;49.212;8.084;2022-07-29T22:36:39;23.30;88.80
61207;DHT22;47070;49.212;8.084;2022-07-29T22:40:40;23.10;89.50
61207;DHT22;47070;49.212;8.084;2022-07-29T22:44:40;23.10;89.70
61207;DHT22;47070;49.212;8.084;2022-07-29T22:48:41;22.80;90.60
61207;DHT22;47070;49.212;8.084;2022-07-29T22:52:41;22.70;91.10
61207;DHT22;47070;49.212;8.084;2022-07-29T22:56:42;22.50;91.20
61207;DHT22;47070;49.212;8.084;2022-07-29T23:00:43;22.30;91.40
61207;DHT22;47070;49.212;8.084;2022-07-29T23:04:43;22.10;91.60
61207;DHT22;47070;49.212;8.084;2022-07-29T23:08:44;21.90;92.20
61207;DHT22;47070;49.212;8.084;2022-07-29T23:12:44;22.10;91.90
61207;DHT22;47070;49.212;8.084;2022-07-29T23:16:45;22.00;92.50
61207;DHT22;47070;49.212;8.084;2022-07-29T23:20:45;22.20;92.30
61207;DHT22;47070;49.212;8.084;2022-07-29T23:24:46;22.20;91.90
61207;DHT22;47070;49.212;8.084;2022-07-29T23:28:46;22.20;92.30
61207;DHT22;47070;49.212;8.084;2022-07-29T23:32:47;22.10;92.70
61207;DHT22;47070;49.212;8.084;2022-07-29T23:36:47;21.90;92.30
61207;DHT22;47070;49.212;8.084;2022-07-29T23:40:49;22.00;92.80
61207;DHT22;47070;49.212;8.084;2022-07-29T23:44:50;21.80;92.90
61207;DHT22;47070;49.212;8.084;2022-07-29T23:48:50;21.60;93.30
61207;DHT22;47070;49.212;8.084;2022-07-29T23:52:51;21.70;92.30
61207;DHT22;47070;49.212;8.084;2022-07-29T23:56:51;21.70;92.20
